createdAt,value
2017-08-08T00:01:05.521Z,90.50
2017-08-08T00:03:33.796Z,90.50
2017-08-08T00:06:02.130Z,90.50
2017-08-08T00:08:31.220Z,90.40
2017-08-08T00:10:59.591Z,90.40
2017-08-08T00:13:27.908Z,90.80
2017-08-08T00:15:56.955Z,90.90
2017-08-08T00:18:25.284Z,90.90
2017-08-08T00:20:53.670Z,90.90
2017-08-08T00:23:21.967Z,91.20
2017-08-08T00:25:50.357Z,91.10
2017-08-08T00:28:18.673Z,90.70
2017-08-08T00:30:47.728Z,90.70
2017-08-08T00:33:16.011Z,90.70
2017-08-08T00:35:44.330Z,90.60
2017-08-08T00:38:12.643Z,90.70
2017-08-08T00:40:41.690Z,90.70
2017-08-08T00:43:10.120Z,90.70
2017-08-08T00:45:38.512Z,90.60
2017-08-08T00:48:06.894Z,90.80
2017-08-08T00:50:35.215Z,90.60
2017-08-08T00:53:04.267Z,90.60
2017-08-08T00:55:32.592Z,90.60
2017-08-08T00:58:00.883Z,90.60
2017-08-08T01:00:29.272Z,90.70
2017-08-08T01:02:57.596Z,90.60
2017-08-08T01:05:26.666Z,90.80
2017-08-08T01:07:54.950Z,90.80
2017-08-08T01:10:23.268Z,90.70
2017-08-08T01:12:52.356Z,90.90
2017-08-08T01:15:20.671Z,90.90
2017-08-08T01:17:49.737Z,91.00
2017-08-08T01:20:18.064Z,91.00
2017-08-08T01:22:47.110Z,91.10
2017-08-08T01:25:15.649Z,91.10
2017-08-08T01:27:44.031Z,90.90
2017-08-08T01:30:12.328Z,90.80
2017-08-08T01:32:40.722Z,90.80
2017-08-08T01:35:09.095Z,90.90
2017-08-08T01:37:37.501Z,90.90
2017-08-08T01:40:05.800Z,91.00
2017-08-08T01:42:34.899Z,91.30
2017-08-08T01:45:03.199Z,91.10
2017-08-08T01:47:32.390Z,91.20
2017-08-08T01:50:00.708Z,91.20
2017-08-08T01:52:29.074Z,91.30
2017-08-08T01:54:57.402Z,91.20
2017-08-08T01:57:25.689Z,91.10
2017-08-08T01:59:54.048Z,91.10
2017-08-08T02:02:22.355Z,91.00
2017-08-08T02:04:51.442Z,91.10
2017-08-08T02:07:19.832Z,91.10
2017-08-08T02:09:48.110Z,90.90
2017-08-08T02:12:16.503Z,91.10
2017-08-08T02:14:44.838Z,90.90
2017-08-08T02:17:13.887Z,90.90
2017-08-08T02:19:42.205Z,90.90
2017-08-08T02:22:10.585Z,91.10
2017-08-08T02:24:38.982Z,91.50
2017-08-08T02:27:07.273Z,91.50
2017-08-08T02:29:35.592Z,91.10
2017-08-08T02:32:03.912Z,90.90
2017-08-08T02:34:32.194Z,91.10
2017-08-08T02:37:00.534Z,90.90
2017-08-08T02:39:29.610Z,91.30
2017-08-08T02:41:57.904Z,91.30
2017-08-08T02:44:26.218Z,91.60
2017-08-08T02:46:54.599Z,91.20
2017-08-08T02:49:22.925Z,91.10
2017-08-08T02:51:52.022Z,91.00
2017-08-08T02:54:20.336Z,91.00
2017-08-08T02:56:48.679Z,91.00
2017-08-08T02:59:17.062Z,91.00
2017-08-08T03:01:45.362Z,91.00
2017-08-08T03:04:13.670Z,91.00
2017-08-08T03:06:42.750Z,91.20
2017-08-08T03:09:11.075Z,90.80
2017-08-08T03:11:40.254Z,91.40
2017-08-08T03:14:08.543Z,91.40
2017-08-08T03:16:36.876Z,91.30
2017-08-08T03:19:05.228Z,91.20
2017-08-08T03:21:33.562Z,91.30
2017-08-08T03:24:01.842Z,91.20
2017-08-08T03:26:30.169Z,91.10
2017-08-08T03:28:58.475Z,91.20
2017-08-08T03:31:26.755Z,91.10
2017-08-08T03:33:55.080Z,91.10
2017-08-08T03:36:24.176Z,91.30
2017-08-08T03:38:52.509Z,90.90
2017-08-08T03:41:20.787Z,90.90
2017-08-08T03:43:49.062Z,90.90
2017-08-08T03:46:18.502Z,91.00
2017-08-08T03:48:46.946Z,91.00
2017-08-08T03:51:15.230Z,90.80
2017-08-08T03:53:43.545Z,90.70
2017-08-08T03:56:12.738Z,90.50
2017-08-08T03:58:41.023Z,90.50
2017-08-08T04:01:09.340Z,90.40
2017-08-08T04:03:38.381Z,90.60
2017-08-08T04:06:06.708Z,90.60
2017-08-08T04:08:35.019Z,90.40
2017-08-08T04:11:04.071Z,90.20
2017-08-08T04:13:32.388Z,90.20
2017-08-08T04:16:00.695Z,90.20
2017-08-08T04:18:29.011Z,90.00
2017-08-08T04:20:57.368Z,89.80
2017-08-08T04:23:25.660Z,89.40
2017-08-08T04:25:54.044Z,88.70
2017-08-08T04:28:22.544Z,88.60
2017-08-08T04:30:50.826Z,87.10
2017-08-08T04:33:19.211Z,87.30
2017-08-08T04:35:47.611Z,87.30
2017-08-08T04:38:16.003Z,87.30
2017-08-08T04:40:44.287Z,85.60
2017-08-08T04:43:12.594Z,84.70
2017-08-08T04:45:41.683Z,82.60
2017-08-08T04:48:10.084Z,82.50
2017-08-08T04:50:38.362Z,81.40
2017-08-08T04:53:06.679Z,81.50
2017-08-08T04:55:35.759Z,81.40
2017-08-08T04:58:04.151Z,81.40
2017-08-08T05:00:32.555Z,81.00
2017-08-08T05:03:00.932Z,81.20
2017-08-08T05:05:29.340Z,78.80
2017-08-08T05:07:57.622Z,78.70
2017-08-08T05:10:25.908Z,79.20
2017-08-08T05:12:54.228Z,77.60
2017-08-08T05:15:23.275Z,78.40
2017-08-08T05:17:51.586Z,78.30
2017-08-08T05:20:20.021Z,78.20
2017-08-08T05:22:48.381Z,76.60
2017-08-08T05:25:16.684Z,76.30
2017-08-08T05:27:45.876Z,74.90
2017-08-08T05:30:14.183Z,74.90
2017-08-08T05:32:43.270Z,76.60
2017-08-08T05:35:11.578Z,75.90
2017-08-08T05:37:40.664Z,75.00
2017-08-08T05:40:08.939Z,74.40
2017-08-08T05:42:37.249Z,73.70
2017-08-08T05:45:05.645Z,73.40
2017-08-08T05:47:33.923Z,75.00
2017-08-08T05:50:02.320Z,73.10
2017-08-08T05:52:30.703Z,73.80
2017-08-08T05:54:59.095Z,72.00
2017-08-08T05:57:27.487Z,70.50
2017-08-08T05:59:55.884Z,71.50
2017-08-08T06:02:24.166Z,72.10
2017-08-08T06:04:52.475Z,70.00
2017-08-08T06:07:20.818Z,69.50
2017-08-08T06:09:49.348Z,70.00
2017-08-08T06:12:17.631Z,67.90
2017-08-08T06:14:45.911Z,67.30
2017-08-08T06:17:14.229Z,68.00
2017-08-08T06:19:42.502Z,65.00
2017-08-08T06:22:10.823Z,67.00
2017-08-08T06:24:40.316Z,65.70
2017-08-08T06:27:08.603Z,66.50
2017-08-08T06:29:36.992Z,64.20
2017-08-08T06:32:05.374Z,62.50
2017-08-08T06:34:33.683Z,60.10
2017-08-08T06:37:01.959Z,59.60
2017-08-08T06:39:30.345Z,60.80
2017-08-08T06:41:58.624Z,63.00
2017-08-08T06:44:27.035Z,62.50
2017-08-08T06:46:55.324Z,60.00
2017-08-08T06:49:23.707Z,61.40
2017-08-08T06:51:52.104Z,59.70
2017-08-08T06:54:20.495Z,60.60
2017-08-08T06:56:48.889Z,59.60
2017-08-08T06:59:17.200Z,59.20
2017-08-08T07:01:46.267Z,59.70
2017-08-08T07:04:14.542Z,59.70
2017-08-08T07:06:42.963Z,58.40
2017-08-08T07:09:11.238Z,58.50
2017-08-08T07:11:39.514Z,57.90
2017-08-08T07:14:07.897Z,57.80
2017-08-08T07:16:36.215Z,59.00
2017-08-08T07:19:04.522Z,58.90
2017-08-08T07:21:32.894Z,58.90
2017-08-08T07:24:01.286Z,56.80
2017-08-08T07:26:29.583Z,59.20
2017-08-08T07:28:57.859Z,56.20
2017-08-08T07:31:26.264Z,56.70
2017-08-08T07:33:54.539Z,57.30
2017-08-08T07:36:22.864Z,54.50
2017-08-08T07:38:51.917Z,54.70
2017-08-08T07:41:20.200Z,54.60
2017-08-08T07:43:48.517Z,55.30
2017-08-08T07:46:16.796Z,54.10
2017-08-08T07:48:45.103Z,54.70
2017-08-08T07:51:13.387Z,55.40
2017-08-08T07:53:41.675Z,56.10
2017-08-08T07:56:10.062Z,55.70
2017-08-08T07:58:38.339Z,54.00
2017-08-08T08:01:06.656Z,55.60
2017-08-08T08:03:34.951Z,52.70
2017-08-08T08:06:03.258Z,53.50
2017-08-08T08:08:32.314Z,54.40
2017-08-08T08:11:00.626Z,54.40
2017-08-08T08:13:28.938Z,56.10
2017-08-08T08:15:58.132Z,54.50
2017-08-08T08:18:26.510Z,54.40
2017-08-08T08:20:54.786Z,54.20
2017-08-08T08:23:23.190Z,53.70
2017-08-08T08:25:51.480Z,53.10
2017-08-08T08:28:19.870Z,54.40
2017-08-08T08:30:48.195Z,54.40
2017-08-08T08:33:17.267Z,53.00
2017-08-08T08:35:45.773Z,53.00
2017-08-08T08:38:14.151Z,54.90
2017-08-08T08:40:42.427Z,54.60
2017-08-08T08:43:10.752Z,53.00
2017-08-08T08:45:39.126Z,55.20
2017-08-08T08:48:07.455Z,53.30
2017-08-08T08:50:35.756Z,55.20
2017-08-08T08:53:04.087Z,53.60
2017-08-08T08:55:32.382Z,54.90
2017-08-08T08:58:00.691Z,53.90
2017-08-08T09:00:29.788Z,53.70
2017-08-08T09:02:58.180Z,53.60
2017-08-08T09:05:26.573Z,54.40
2017-08-08T09:07:54.948Z,54.70
2017-08-08T09:10:24.988Z,54.80
2017-08-08T09:12:53.290Z,54.70
2017-08-08T09:15:21.587Z,56.20
2017-08-08T09:17:49.961Z,56.60
2017-08-08T09:20:18.234Z,54.90
2017-08-08T09:22:46.647Z,54.80
2017-08-08T09:25:14.941Z,54.70
2017-08-08T09:27:43.319Z,54.50
2017-08-08T09:30:11.707Z,55.30
2017-08-08T09:32:40.008Z,54.80
2017-08-08T09:35:08.290Z,55.20
2017-08-08T09:37:36.604Z,54.80
2017-08-08T09:40:05.802Z,54.90
2017-08-08T09:42:34.098Z,54.80
2017-08-08T09:45:03.187Z,54.90
2017-08-08T09:47:31.585Z,54.90
2017-08-08T09:50:00.647Z,53.40
2017-08-08T09:52:28.971Z,53.30
2017-08-08T09:54:57.352Z,54.10
2017-08-08T09:57:25.669Z,51.60
2017-08-08T09:59:54.042Z,53.50
2017-08-08T10:02:22.941Z,51.20
2017-08-08T10:04:51.344Z,51.90
2017-08-08T10:07:19.723Z,53.10
2017-08-08T10:09:48.031Z,53.80
2017-08-08T10:12:16.352Z,53.00
2017-08-08T10:14:44.704Z,51.00
2017-08-08T10:17:13.016Z,52.90
2017-08-08T10:19:42.108Z,52.00
2017-08-08T10:22:10.397Z,51.90
2017-08-08T10:24:38.770Z,52.10
2017-08-08T10:27:07.050Z,51.80
2017-08-08T10:29:35.450Z,51.60
2017-08-08T10:32:03.743Z,50.50
2017-08-08T10:34:32.134Z,52.50
2017-08-08T10:37:00.414Z,53.00
2017-08-08T10:39:28.733Z,51.60
2017-08-08T10:41:57.052Z,53.30
2017-08-08T10:44:25.406Z,51.50
2017-08-08T10:46:53.901Z,50.30
2017-08-08T10:49:22.170Z,52.00
2017-08-08T10:51:50.460Z,52.60
2017-08-08T10:54:18.846Z,52.70
2017-08-08T10:56:47.890Z,52.40
2017-08-08T10:59:16.975Z,52.00
2017-08-08T11:01:45.251Z,51.90
2017-08-08T11:04:13.567Z,51.90
2017-08-08T11:06:41.949Z,52.10
2017-08-08T11:09:10.340Z,52.60
2017-08-08T11:11:38.722Z,52.80
2017-08-08T11:14:07.030Z,52.50
2017-08-08T11:16:35.316Z,53.50
2017-08-08T11:19:03.690Z,54.20
2017-08-08T11:21:32.012Z,54.20
2017-08-08T11:24:01.064Z,52.30
2017-08-08T11:26:29.388Z,52.30
2017-08-08T11:28:57.849Z,51.80
2017-08-08T11:31:26.163Z,52.50
2017-08-08T11:33:54.447Z,53.60
2017-08-08T11:36:22.755Z,53.60
2017-08-08T11:38:51.040Z,51.60
2017-08-08T11:41:19.344Z,51.90
2017-08-08T11:43:48.426Z,53.20
2017-08-08T11:46:16.704Z,53.20
2017-08-08T11:48:45.111Z,50.00
2017-08-08T11:51:13.505Z,50.30
2017-08-08T11:53:41.889Z,50.10
2017-08-08T11:56:10.195Z,49.60
2017-08-08T11:58:38.487Z,49.70
2017-08-08T12:01:06.787Z,48.60
2017-08-08T12:03:35.839Z,49.70
2017-08-08T12:06:04.365Z,49.70
2017-08-08T12:08:32.648Z,49.20
2017-08-08T12:11:00.934Z,50.90
2017-08-08T12:13:29.246Z,50.90
2017-08-08T12:15:58.349Z,49.20
2017-08-08T12:18:26.731Z,49.20
2017-08-08T12:20:55.052Z,49.20
2017-08-08T12:23:24.096Z,50.20
2017-08-08T12:25:52.520Z,50.20
2017-08-08T12:28:20.843Z,49.70
2017-08-08T12:30:49.191Z,51.30
2017-08-08T12:33:17.489Z,50.20
2017-08-08T12:35:45.875Z,48.80
2017-08-08T12:38:14.200Z,49.80
2017-08-08T12:40:43.275Z,48.10
2017-08-08T12:43:11.559Z,48.10
2017-08-08T12:45:39.880Z,49.50
2017-08-08T12:48:08.954Z,48.70
2017-08-08T12:50:37.276Z,48.70
2017-08-08T12:53:06.329Z,49.90
2017-08-08T12:55:34.640Z,49.80
2017-08-08T12:58:02.910Z,50.10
2017-08-08T13:00:31.219Z,49.50
2017-08-08T13:02:59.532Z,49.00
2017-08-08T13:05:27.802Z,48.90
2017-08-08T13:07:56.110Z,49.20
2017-08-08T13:10:25.305Z,49.80
2017-08-08T13:12:53.588Z,49.50
2017-08-08T13:15:21.974Z,49.80
2017-08-08T13:17:50.282Z,48.90
2017-08-08T13:20:18.586Z,49.20
2017-08-08T13:22:47.772Z,49.40
2017-08-08T13:25:16.061Z,49.40
2017-08-08T13:27:44.391Z,50.00
2017-08-08T13:30:12.738Z,49.70
2017-08-08T13:32:41.065Z,50.60
2017-08-08T13:35:09.384Z,50.30
2017-08-08T13:37:37.704Z,52.00
2017-08-08T13:40:06.011Z,50.90
2017-08-08T13:42:34.396Z,48.10
2017-08-08T13:45:02.707Z,48.40
2017-08-08T13:47:31.747Z,48.40
2017-08-08T13:50:00.054Z,48.40
2017-08-08T13:52:28.359Z,47.60
2017-08-08T13:54:56.754Z,49.00
2017-08-08T13:57:25.026Z,50.50
2017-08-08T13:59:53.339Z,49.30
2017-08-08T14:02:21.647Z,48.80
2017-08-08T14:04:50.695Z,49.00
2017-08-08T14:07:19.012Z,49.00
2017-08-08T14:09:47.296Z,49.40
2017-08-08T14:12:15.613Z,50.90
2017-08-08T14:14:43.982Z,50.90
2017-08-08T14:17:12.375Z,49.80
2017-08-08T14:19:40.650Z,51.90
2017-08-08T14:22:10.711Z,49.20
2017-08-08T14:24:42.985Z,49.90
2017-08-08T14:27:15.046Z,49.00
2017-08-08T14:29:44.483Z,49.00
2017-08-08T14:32:13.369Z,49.00
2017-08-08T14:34:42.293Z,48.70
2017-08-08T14:37:10.612Z,49.00
2017-08-08T14:39:38.959Z,50.20
2017-08-08T14:42:07.336Z,48.60
2017-08-08T14:44:35.747Z,49.00
2017-08-08T14:47:04.063Z,48.80
2017-08-08T14:49:33.120Z,49.80
2017-08-08T14:52:01.479Z,49.80
2017-08-08T14:54:29.759Z,49.40
2017-08-08T14:56:58.108Z,48.70
2017-08-08T14:59:26.383Z,48.00
2017-08-08T15:01:54.676Z,48.80
2017-08-08T15:04:22.984Z,47.90
2017-08-08T15:06:51.399Z,48.70
2017-08-08T15:09:19.694Z,48.70
2017-08-08T15:11:48.113Z,48.30
2017-08-08T15:14:16.412Z,47.90
2017-08-08T15:16:44.719Z,48.30
2017-08-08T15:19:13.121Z,48.00
2017-08-08T15:21:41.415Z,48.20
2017-08-08T15:24:09.731Z,46.10
2017-08-08T15:26:38.012Z,44.70
2017-08-08T15:29:06.332Z,43.90
2017-08-08T15:31:34.611Z,40.40
2017-08-08T15:34:02.931Z,39.60
2017-08-08T15:36:31.247Z,40.70
2017-08-08T15:38:59.631Z,41.20
2017-08-08T15:41:28.039Z,40.40
2017-08-08T15:43:56.349Z,40.70
2017-08-08T15:46:24.656Z,40.90
2017-08-08T15:48:52.932Z,40.90
2017-08-08T15:51:21.349Z,41.10
2017-08-08T15:53:49.649Z,39.70
2017-08-08T15:56:17.922Z,41.10
2017-08-08T15:58:46.257Z,42.70
2017-08-08T16:01:14.534Z,44.70
2017-08-08T16:03:42.864Z,45.80
2017-08-08T16:06:12.717Z,47.00
2017-08-08T16:08:41.779Z,44.20
2017-08-08T16:11:10.121Z,44.20
2017-08-08T16:13:38.406Z,41.40
2017-08-08T16:16:06.724Z,41.50
2017-08-08T16:18:35.008Z,41.80
2017-08-08T16:21:03.328Z,40.10
2017-08-08T16:23:31.736Z,42.20
2017-08-08T16:26:00.036Z,42.80
2017-08-08T16:28:28.342Z,45.60
2017-08-08T16:30:56.636Z,46.50
2017-08-08T16:33:24.939Z,47.80
2017-08-08T16:35:53.225Z,49.70
2017-08-08T16:38:21.641Z,50.40
2017-08-08T16:40:49.944Z,50.70
2017-08-08T16:43:18.338Z,52.10
2017-08-08T16:45:46.658Z,53.60
2017-08-08T16:48:14.954Z,54.20
2017-08-08T16:50:43.226Z,52.90
2017-08-08T16:53:11.543Z,54.00
2017-08-08T16:55:39.845Z,54.00
2017-08-08T16:58:08.158Z,54.40
2017-08-08T17:00:36.562Z,55.40
2017-08-08T17:03:04.868Z,56.10
2017-08-08T17:05:33.263Z,56.00
2017-08-08T17:08:01.540Z,55.60
2017-08-08T17:10:29.862Z,56.30
2017-08-08T17:12:58.166Z,57.00
2017-08-08T17:15:26.452Z,57.20
2017-08-08T17:17:54.770Z,56.90
2017-08-08T17:20:23.074Z,56.40
2017-08-08T17:22:51.398Z,55.40
2017-08-08T17:25:19.775Z,57.50
2017-08-08T17:27:48.064Z,57.00
2017-08-08T17:30:16.488Z,57.00
2017-08-08T17:32:44.772Z,57.10
2017-08-08T17:35:13.092Z,57.30
2017-08-08T17:37:41.486Z,57.50
2017-08-08T17:40:09.818Z,58.10
2017-08-08T17:42:38.162Z,57.90
2017-08-08T17:45:06.503Z,58.00
2017-08-08T17:47:34.898Z,58.00
2017-08-08T17:50:03.205Z,58.60
2017-08-08T17:52:31.478Z,58.90
2017-08-08T17:54:59.798Z,59.10
2017-08-08T17:57:28.082Z,59.30
2017-08-08T17:59:56.400Z,59.70
2017-08-08T18:02:24.676Z,59.80
2017-08-08T18:04:52.983Z,60.50
2017-08-08T18:07:21.283Z,61.10
2017-08-08T18:09:49.584Z,61.00
2017-08-08T18:12:18.136Z,62.30
2017-08-08T18:14:46.402Z,61.50
2017-08-08T18:17:14.683Z,62.60
2017-08-08T18:19:43.018Z,63.00
2017-08-08T18:22:11.330Z,62.30
2017-08-08T18:24:39.642Z,62.30
2017-08-08T18:27:08.049Z,62.60
2017-08-08T18:29:37.196Z,66.00
2017-08-08T18:32:06.246Z,64.40
2017-08-08T18:34:34.578Z,64.40
2017-08-08T18:37:02.864Z,65.30
2017-08-08T18:39:31.400Z,65.20
2017-08-08T18:41:59.691Z,66.50
2017-08-08T18:44:27.976Z,65.70
2017-08-08T18:46:56.393Z,65.70
2017-08-08T18:49:24.676Z,65.60
2017-08-08T18:51:52.987Z,67.20
2017-08-08T18:54:21.302Z,66.30
2017-08-08T18:56:49.711Z,66.00
2017-08-08T18:59:18.139Z,65.50
2017-08-08T19:01:46.536Z,65.70
2017-08-08T19:04:14.854Z,65.80
2017-08-08T19:06:43.908Z,65.90
2017-08-08T19:09:12.196Z,65.60
2017-08-08T19:11:40.520Z,66.00
2017-08-08T19:14:08.874Z,66.10
2017-08-08T19:16:37.160Z,66.00
2017-08-08T19:19:05.490Z,66.70
2017-08-08T19:21:34.779Z,67.50
2017-08-08T19:24:03.079Z,67.10
2017-08-08T19:26:31.377Z,66.80
2017-08-08T19:28:59.704Z,67.30
2017-08-08T19:31:28.050Z,67.00
2017-08-08T19:33:56.348Z,67.80
2017-08-08T19:36:24.704Z,68.50
2017-08-08T19:38:53.029Z,69.00
2017-08-08T19:41:21.407Z,69.20
2017-08-08T19:43:49.802Z,68.80
2017-08-08T19:46:18.116Z,70.70
2017-08-08T19:48:46.407Z,70.20
2017-08-08T19:51:14.820Z,69.30
2017-08-08T19:53:43.111Z,69.40
2017-08-08T19:56:11.628Z,70.50
2017-08-08T19:58:39.902Z,69.70
2017-08-08T20:01:08.223Z,69.90
2017-08-08T20:03:36.504Z,69.80
2017-08-08T20:06:04.826Z,70.70
2017-08-08T20:08:33.103Z,70.50
2017-08-08T20:11:01.387Z,71.30
2017-08-08T20:13:29.755Z,71.30
2017-08-08T20:15:58.032Z,72.90
2017-08-08T20:18:26.321Z,71.60
2017-08-08T20:20:54.638Z,71.60
2017-08-08T20:23:22.915Z,71.30
2017-08-08T20:25:51.239Z,71.40
2017-08-08T20:28:19.538Z,70.70
2017-08-08T20:30:47.838Z,71.00
2017-08-08T20:33:16.156Z,71.30
2017-08-08T20:35:44.441Z,71.10
2017-08-08T20:38:12.819Z,72.10
2017-08-08T20:40:41.151Z,70.60
2017-08-08T20:43:09.468Z,71.10
2017-08-08T20:45:37.758Z,71.30
2017-08-08T20:48:06.071Z,71.40
2017-08-08T20:50:34.356Z,71.30
2017-08-08T20:53:02.772Z,72.20
2017-08-08T20:55:31.074Z,71.30
2017-08-08T20:57:59.500Z,72.00
2017-08-08T21:00:27.894Z,71.30
2017-08-08T21:02:56.174Z,71.30
2017-08-08T21:05:24.492Z,71.30
2017-08-08T21:07:53.821Z,72.60
2017-08-08T21:10:22.136Z,72.50
2017-08-08T21:12:50.433Z,72.40
2017-08-08T21:15:18.816Z,74.10
2017-08-08T21:17:47.109Z,71.90
2017-08-08T21:20:15.528Z,71.80
2017-08-08T21:22:43.830Z,71.70
2017-08-08T21:25:12.130Z,71.00
2017-08-08T21:27:40.536Z,72.00
2017-08-08T21:30:08.944Z,71.00
2017-08-08T21:32:37.329Z,71.80
2017-08-08T21:35:05.635Z,71.70
2017-08-08T21:37:34.042Z,71.20
2017-08-08T21:40:02.383Z,72.20
2017-08-08T21:42:31.488Z,72.20
2017-08-08T21:44:59.781Z,72.20
2017-08-08T21:47:28.100Z,71.70
2017-08-08T21:49:56.688Z,71.80
2017-08-08T21:52:24.985Z,73.10
2017-08-08T21:54:53.292Z,73.20
2017-08-08T21:57:21.608Z,72.90
2017-08-08T21:59:49.996Z,74.40
2017-08-08T22:02:18.514Z,73.60
2017-08-08T22:04:46.803Z,74.40
2017-08-08T22:07:15.120Z,74.30
2017-08-08T22:09:43.508Z,73.90
2017-08-08T22:12:11.823Z,74.70
2017-08-08T22:14:40.148Z,75.00
2017-08-08T22:17:09.236Z,75.80
2017-08-08T22:19:37.542Z,75.80
2017-08-08T22:22:05.886Z,75.40
2017-08-08T22:24:34.244Z,74.50
2017-08-08T22:27:02.648Z,74.70
2017-08-08T22:29:30.947Z,74.80
2017-08-08T22:31:59.356Z,74.30
2017-08-08T22:34:27.664Z,74.60
2017-08-08T22:36:56.060Z,74.40
2017-08-08T22:39:24.367Z,74.20
2017-08-08T22:41:52.864Z,74.60
2017-08-08T22:44:21.264Z,74.20
2017-08-08T22:46:49.668Z,74.30
2017-08-08T22:49:17.987Z,73.80
2017-08-08T22:51:47.190Z,75.30
2017-08-08T22:54:15.525Z,74.40
2017-08-08T22:56:44.584Z,74.30
2017-08-08T22:59:13.015Z,75.00
2017-08-08T23:01:41.316Z,74.40
2017-08-08T23:04:09.631Z,74.00
2017-08-08T23:06:38.122Z,73.70
2017-08-08T23:09:06.435Z,74.20
2017-08-08T23:11:34.827Z,74.40
2017-08-08T23:14:03.178Z,74.40
2017-08-08T23:16:31.548Z,74.70
2017-08-08T23:18:59.839Z,74.80
2017-08-08T23:21:28.338Z,75.10
2017-08-08T23:23:56.653Z,75.20
2017-08-08T23:26:24.943Z,75.30
2017-08-08T23:28:53.554Z,75.40
2017-08-08T23:31:21.860Z,75.60
2017-08-08T23:36:24.928Z,74.80
2017-08-08T23:38:53.214Z,74.90
2017-08-08T23:41:21.544Z,74.70
2017-08-08T23:43:50.738Z,75.00
2017-08-08T23:46:19.344Z,75.10
2017-08-08T23:48:47.767Z,75.00
2017-08-08T23:51:16.154Z,75.60
2017-08-08T23:53:44.504Z,75.50
2017-08-08T23:56:12.877Z,75.00
2017-08-08T23:58:41.271Z,75.00
